Time;durP1;ratioP1;P1;durP2;ratioP2;P2;SDS_P1;SDS_P2;PMS_P1;PMS_P2;Temp;Humidity;BMP_temperature;BMP_pressure;BME280_temperature;BME280_humidity;BME280_pressure;Samples;Min_cycle;Max_cycle;Signal;HPM_P1;HPM_P2
2021/06/09 00:00:49;;;;;;;32.27;21.10;;;15.50;99.90;;;;;;5055403;28;20453;-87
2021/06/09 00:03:15;;;;;;;32.30;22.80;;;15.50;99.90;;;;;;5054761;28;20452;-87
2021/06/09 00:05:42;;;;;;;34.40;21.93;;;15.50;99.90;;;;;;5054968;28;20580;-87
2021/06/09 00:08:08;;;;;;;30.67;21.80;;;15.40;99.90;;;;;;5055833;28;20437;-84
2021/06/09 00:10:34;;;;;;;36.77;23.00;;;15.40;99.90;;;;;;5054598;28;20480;-84
2021/06/09 00:13:01;;;;;;;35.30;23.77;;;15.40;99.90;;;;;;5054810;28;20497;-84
2021/06/09 00:15:29;;;;;;;36.97;21.60;;;15.40;99.90;;;;;;5054728;28;20489;-84
2021/06/09 00:17:55;;;;;;;33.97;21.63;;;15.40;99.90;;;;;;5054504;28;20434;-83
2021/06/09 00:20:25;;;;;;;28.40;20.17;;;15.40;99.90;;;;;;5054392;28;20456;-84
2021/06/09 00:22:51;;;;;;;28.87;20.50;;;15.30;99.90;;;;;;5054680;28;20476;-84
2021/06/09 00:25:18;;;;;;;27.37;19.43;;;15.30;99.90;;;;;;5054637;28;20449;-84
2021/06/09 00:27:46;;;;;;;27.80;18.57;;;15.30;99.90;;;;;;5055259;28;20865;-89
2021/06/09 00:30:16;;;;;;;26.07;19.37;;;15.20;99.90;;;;;;5055043;28;20499;-89
2021/06/09 00:32:44;;;;;;;35.10;19.53;;;15.20;99.90;;;;;;5054693;28;20461;-84
2021/06/09 00:35:11;;;;;;;26.90;17.53;;;15.20;99.90;;;;;;5057249;28;20470;-89
2021/06/09 00:37:38;;;;;;;28.87;17.33;;;15.10;99.90;;;;;;5059942;28;20460;-88
2021/06/09 00:40:05;;;;;;;26.33;17.83;;;15.10;99.90;;;;;;5057440;28;20468;-89
2021/06/09 00:42:31;;;;;;;26.60;18.10;;;15.10;99.90;;;;;;5062578;28;20542;-89
2021/06/09 00:44:58;;;;;;;25.57;18.73;;;15.00;99.90;;;;;;5055079;28;20460;-89
2021/06/09 00:47:26;;;;;;;24.57;17.57;;;15.10;99.90;;;;;;5054258;28;20454;-86
2021/06/09 00:49:53;;;;;;;26.37;19.07;;;15.10;99.90;;;;;;5054190;28;20426;-85
2021/06/09 00:52:23;;;;;;;24.73;18.43;;;15.10;99.90;;;;;;5054029;28;20550;-85
2021/06/09 00:54:50;;;;;;;29.07;19.03;;;15.00;99.90;;;;;;5054622;28;20468;-84
2021/06/09 00:57:18;;;;;;;27.57;18.07;;;15.00;99.90;;;;;;5054089;28;20453;-88
2021/06/09 00:59:45;;;;;;;29.20;19.17;;;15.00;99.90;;;;;;5054478;28;20449;-89
2021/06/09 01:02:12;;;;;;;25.20;18.10;;;15.00;99.90;;;;;;5054504;28;20462;-89
2021/06/09 01:04:38;;;;;;;30.70;19.57;;;15.00;99.90;;;;;;5054071;28;20438;-84
2021/06/09 01:07:08;;;;;;;26.43;18.97;;;15.00;99.90;;;;;;5053771;28;20477;-85
2021/06/09 01:09:35;;;;;;;25.00;18.20;;;15.00;99.90;;;;;;5054080;28;20462;-85
2021/06/09 01:12:02;;;;;;;26.67;18.93;;;14.90;99.90;;;;;;5053786;28;20453;-85
2021/06/09 01:14:28;;;;;;;24.73;18.13;;;14.90;99.90;;;;;;5052967;28;20479;-85
2021/06/09 01:16:55;;;;;;;24.27;18.20;;;14.90;99.90;;;;;;5053746;28;20474;-85
2021/06/09 01:19:22;;;;;;;24.97;17.70;;;14.90;99.90;;;;;;5054095;28;20457;-85
2021/06/09 01:21:50;;;;;;;25.90;18.33;;;14.80;99.90;;;;;;5054075;28;20523;-85
2021/06/09 01:24:16;;;;;;;29.50;18.70;;;14.80;99.90;;;;;;5054237;28;21008;-85
2021/06/09 01:26:44;;;;;;;23.53;17.60;;;14.80;99.90;;;;;;5054207;28;20434;-86
2021/06/09 01:29:10;;;;;;;37.70;17.63;;;14.80;99.90;;;;;;5054656;28;20529;-85
2021/06/09 01:31:37;;;;;;;25.90;17.63;;;14.80;99.90;;;;;;5054099;28;20469;-85
2021/06/09 01:34:05;;;;;;;27.33;17.33;;;14.80;99.90;;;;;;5054017;28;20445;-85
2021/06/09 01:36:33;;;;;;;24.57;18.47;;;14.80;99.90;;;;;;5053763;28;20477;-85
2021/06/09 01:39:06;;;;;;;25.93;18.00;;;14.80;99.90;;;;;;5053764;28;20960;-85
2021/06/09 01:41:33;;;;;;;23.60;16.67;;;14.80;99.90;;;;;;5053995;28;20474;-85
2021/06/09 01:43:59;;;;;;;22.70;16.53;;;14.80;99.90;;;;;;5053867;28;20445;-85
2021/06/09 01:46:25;;;;;;;26.00;18.27;;;14.80;99.90;;;;;;5054349;28;20450;-85
2021/06/09 01:48:52;;;;;;;22.03;15.70;;;14.80;99.90;;;;;;5053823;28;20460;-85
2021/06/09 01:51:19;;;;;;;27.30;16.87;;;14.80;99.90;;;;;;5053537;28;20469;-85
2021/06/09 01:53:46;;;;;;;22.80;16.67;;;14.80;99.90;;;;;;5053940;28;20457;-85
2021/06/09 01:56:14;;;;;;;22.00;16.17;;;14.80;99.90;;;;;;5053947;28;20523;-88
2021/06/09 01:58:40;;;;;;;23.40;17.17;;;14.80;99.90;;;;;;5053560;28;20460;-84
2021/06/09 02:01:07;;;;;;;22.97;16.03;;;14.80;99.90;;;;;;5053868;28;20568;-84
2021/06/09 02:03:33;;;;;;;24.17;16.43;;;14.80;99.90;;;;;;5053518;28;20454;-84
2021/06/09 02:06:00;;;;;;;20.80;15.53;;;14.80;99.90;;;;;;5052820;28;21169;-84
2021/06/09 02:08:26;;;;;;;20.47;15.10;;;14.80;99.90;;;;;;5052474;28;20457;-84
2021/06/09 02:10:52;;;;;;;29.00;17.07;;;14.80;99.90;;;;;;5052331;28;20441;-83
2021/06/09 02:13:21;;;;;;;21.00;15.77;;;14.80;99.90;;;;;;5052438;28;20445;-84
2021/06/09 02:15:51;;;;;;;19.30;15.00;;;14.80;99.90;;;;;;5052528;28;20575;-86
2021/06/09 02:18:22;;;;;;;24.17;16.20;;;14.80;99.90;;;;;;5052758;28;20870;-86
2021/06/09 02:20:52;;;;;;;24.87;17.87;;;14.80;99.90;;;;;;5053060;28;20450;-86
2021/06/09 02:23:20;;;;;;;24.70;16.57;;;14.70;99.90;;;;;;5062952;28;20441;-85
2021/06/09 02:25:49;;;;;;;26.80;18.20;;;14.70;99.90;;;;;;5062091;28;20430;-88
2021/06/09 02:28:17;;;;;;;22.47;16.00;;;14.70;99.90;;;;;;5059625;28;20453;-88
2021/06/09 02:30:46;;;;;;;23.83;16.80;;;14.70;99.90;;;;;;5055639;28;20439;-89
2021/06/09 02:33:13;;;;;;;21.70;16.80;;;14.80;99.90;;;;;;5055995;28;20503;-88
2021/06/09 02:35:41;;;;;;;21.33;16.07;;;14.70;99.90;;;;;;5055625;28;20481;-84
2021/06/09 02:38:09;;;;;;;22.63;15.77;;;14.70;99.90;;;;;;5055683;28;20449;-85
2021/06/09 02:40:36;;;;;;;22.80;16.90;;;14.70;99.90;;;;;;5055521;28;20450;-84
2021/06/09 02:43:03;;;;;;;20.87;15.40;;;14.70;99.90;;;;;;5055527;28;20477;-84
2021/06/09 02:45:30;;;;;;;23.67;17.37;;;14.70;99.90;;;;;;5055699;28;20492;-87
2021/06/09 02:48:02;;;;;;;20.27;15.37;;;14.70;99.90;;;;;;5055745;28;20454;-88
2021/06/09 02:50:28;;;;;;;21.00;16.27;;;14.70;99.90;;;;;;5056040;28;20910;-89
2021/06/09 02:53:03;;;;;;;22.30;15.53;;;14.70;99.90;;;;;;5055801;28;20466;-85
2021/06/09 02:55:41;;;;;;;20.63;16.10;;;14.70;99.90;;;;;;5055696;28;20461;-85
2021/06/09 02:58:13;;;;;;;23.67;16.77;;;14.70;99.90;;;;;;5056123;28;20449;-85
2021/06/09 03:00:48;;;;;;;20.80;15.30;;;14.70;99.90;;;;;;5055638;28;20775;-85
2021/06/09 03:03:20;;;;;;;21.00;15.80;;;14.70;99.90;;;;;;5055564;28;20430;-85
2021/06/09 03:05:53;;;;;;;20.40;15.93;;;14.70;99.90;;;;;;5052774;28;68991;-85
2021/06/09 03:08:26;;;;;;;20.63;15.80;;;14.80;99.90;;;;;;5056217;28;20427;-88
2021/06/09 03:10:59;;;;;;;19.77;14.57;;;14.80;99.90;;;;;;5056211;28;20442;-88
2021/06/09 03:13:50;;;;;;;23.00;16.50;;;14.80;99.90;;;;;;5056208;28;20434;-84
2021/06/09 03:16:21;;;;;;;22.80;16.27;;;14.80;99.90;;;;;;5056058;28;20477;-84
2021/06/09 03:18:51;;;;;;;22.87;16.60;;;14.80;99.90;;;;;;5056110;28;20426;-84
2021/06/09 03:21:21;;;;;;;19.90;15.97;;;14.80;99.90;;;;;;5055915;28;20489;-85
2021/06/09 03:24:02;;;;;;;23.20;17.10;;;14.80;99.90;;;;;;5056311;28;20430;-86
2021/06/09 03:26:38;;;;;;;22.50;16.63;;;14.70;99.90;;;;;;5056421;28;20449;-86
2021/06/09 03:29:10;;;;;;;26.07;17.50;;;14.70;99.90;;;;;;5056332;28;20776;-84
2021/06/09 03:31:40;;;;;;;24.70;17.20;;;14.80;99.90;;;;;;5055807;28;20466;-84
2021/06/09 03:34:14;;;;;;;26.13;17.67;;;14.80;99.90;;;;;;5056024;28;20484;-88
2021/06/09 03:36:42;;;;;;;21.10;16.40;;;14.80;99.90;;;;;;5055180;28;20465;-88
2021/06/09 03:39:11;;;;;;;21.63;16.10;;;14.80;99.90;;;;;;5056055;28;20442;-89
2021/06/09 03:41:40;;;;;;;21.90;16.50;;;14.80;99.90;;;;;;5055502;28;20462;-85
2021/06/09 03:44:08;;;;;;;24.07;16.87;;;14.80;99.90;;;;;;5055611;28;20917;-84
2021/06/09 03:46:37;;;;;;;24.60;18.03;;;14.80;99.90;;;;;;5055365;28;20433;-85
2021/06/09 03:49:09;;;;;;;23.60;18.10;;;14.80;99.90;;;;;;5055530;28;20429;-86
2021/06/09 03:51:38;;;;;;;26.57;20.33;;;14.80;99.90;;;;;;5055648;28;20470;-86
2021/06/09 03:54:06;;;;;;;24.27;16.90;;;14.80;99.90;;;;;;5055448;28;20522;-86
2021/06/09 03:56:34;;;;;;;31.60;19.03;;;14.80;99.90;;;;;;5055428;28;20485;-85
2021/06/09 03:59:02;;;;;;;27.20;18.00;;;14.80;99.90;;;;;;5055186;28;20983;-85
2021/06/09 04:01:31;;;;;;;24.57;17.60;;;14.80;99.90;;;;;;5055559;28;20464;-86
2021/06/09 04:03:58;;;;;;;23.77;17.33;;;14.80;99.90;;;;;;5055704;28;20450;-86
2021/06/09 04:06:27;;;;;;;24.90;17.47;;;14.80;99.90;;;;;;5054971;28;21015;-86
2021/06/09 04:08:55;;;;;;;25.90;17.70;;;14.80;99.90;;;;;;5055557;28;20544;-85
2021/06/09 04:11:23;;;;;;;25.70;18.30;;;14.90;99.90;;;;;;5055077;28;20539;-85
2021/06/09 04:13:50;;;;;;;27.23;18.17;;;14.90;99.90;;;;;;5055090;28;20521;-86
2021/06/09 04:16:18;;;;;;;26.03;18.20;;;14.90;99.90;;;;;;5055517;28;20477;-86
2021/06/09 04:18:46;;;;;;;27.93;18.63;;;14.90;99.90;;;;;;5055179;28;20450;-86
2021/06/09 04:21:13;;;;;;;24.80;18.60;;;14.90;99.90;;;;;;5054964;28;20450;-86
2021/06/09 04:23:41;;;;;;;24.20;17.97;;;15.00;99.90;;;;;;5057175;28;20477;-86
2021/06/09 04:26:12;;;;;;;25.43;17.53;;;15.00;99.90;;;;;;5055095;28;20445;-86
2021/06/09 04:28:39;;;;;;;25.90;18.20;;;15.00;99.90;;;;;;5055128;28;20446;-86
2021/06/09 04:31:07;;;;;;;23.57;17.90;;;15.10;99.90;;;;;;5054884;28;20474;-86
2021/06/09 04:33:33;;;;;;;24.70;18.37;;;15.10;99.90;;;;;;5055013;28;20810;-86
2021/06/09 04:35:59;;;;;;;25.57;17.87;;;15.10;99.90;;;;;;5054641;28;20523;-86
2021/06/09 04:38:26;;;;;;;24.30;17.10;;;15.10;99.90;;;;;;5054728;28;21007;-85
2021/06/09 04:40:54;;;;;;;26.27;18.30;;;15.20;99.90;;;;;;5054629;28;20434;-84
2021/06/09 04:43:23;;;;;;;24.47;17.30;;;15.20;99.90;;;;;;5054601;28;20820;-84
2021/06/09 04:45:50;;;;;;;30.13;17.93;;;15.20;99.90;;;;;;5054530;28;20434;-84
2021/06/09 04:48:17;;;;;;;25.80;18.50;;;15.20;99.90;;;;;;5054505;28;20567;-84
2021/06/09 04:50:47;;;;;;;21.67;17.40;;;15.30;99.90;;;;;;5054507;28;20450;-85
2021/06/09 04:53:14;;;;;;;24.00;18.07;;;15.30;99.90;;;;;;5054137;28;20937;-85
2021/06/09 04:55:41;;;;;;;23.23;17.60;;;15.30;99.90;;;;;;5054297;28;20568;-84
2021/06/09 04:58:10;;;;;;;25.30;18.57;;;15.40;99.90;;;;;;5054454;28;20508;-85
2021/06/09 05:00:36;;;;;;;24.67;17.23;;;15.40;99.90;;;;;;5054433;28;20468;-85
2021/06/09 05:03:03;;;;;;;25.47;17.87;;;15.50;99.90;;;;;;5054264;28;20557;-85
2021/06/09 05:05:29;;;;;;;26.60;19.70;;;15.50;99.90;;;;;;5054054;28;20477;-85
2021/06/09 05:07:56;;;;;;;23.40;17.50;;;15.60;99.90;;;;;;5054303;28;20450;-83
2021/06/09 05:10:22;;;;;;;23.30;17.90;;;15.60;99.90;;;;;;5054264;28;20465;-85
2021/06/09 05:12:53;;;;;;;26.53;18.30;;;15.70;99.90;;;;;;5054550;28;20470;-85
2021/06/09 05:15:23;;;;;;;23.87;17.20;;;15.70;99.90;;;;;;5054241;28;20433;-85
2021/06/09 05:17:50;;;;;;;24.27;17.73;;;15.80;99.90;;;;;;5053912;28;20460;-84
2021/06/09 05:20:45;;;;;;;21.73;17.70;;;15.90;99.90;;;;;;5054095;28;20817;-85
2021/06/09 05:23:17;;;;;;;27.10;17.93;;;15.90;99.90;;;;;;5048717;28;20462;-85
2021/06/09 05:25:45;;;;;;;28.50;20.17;;;16.00;99.90;;;;;;5054580;28;20497;-85
2021/06/09 05:28:14;;;;;;;26.30;18.87;;;16.00;99.90;;;;;;5054078;28;20641;-85
2021/06/09 05:30:43;;;;;;;22.60;17.63;;;16.10;99.90;;;;;;5054206;28;20434;-86
2021/06/09 05:33:11;;;;;;;21.23;18.47;;;16.20;99.90;;;;;;5053854;28;20933;-86
2021/06/09 05:35:38;;;;;;;23.40;18.97;;;16.30;99.90;;;;;;5053843;28;20478;-88
2021/06/09 05:38:04;;;;;;;22.33;17.13;;;16.40;99.90;;;;;;5053855;28;20454;-89
2021/06/09 05:40:31;;;;;;;22.23;18.13;;;16.50;99.90;;;;;;5054817;28;20807;-88
2021/06/09 05:42:58;;;;;;;21.73;17.63;;;16.60;99.90;;;;;;5053945;28;20481;-88
2021/06/09 05:45:28;;;;;;;19.47;17.30;;;16.70;99.90;;;;;;5053997;28;20458;-88
2021/06/09 05:47:56;;;;;;;22.87;18.17;;;16.80;99.90;;;;;;5053936;28;20453;-84
2021/06/09 05:50:24;;;;;;;22.47;19.03;;;16.90;99.90;;;;;;5053803;28;20509;-83
2021/06/09 05:52:53;;;;;;;23.87;17.77;;;17.00;99.90;;;;;;5053636;28;20988;-88
2021/06/09 05:55:22;;;;;;;23.83;19.90;;;17.10;99.90;;;;;;5053769;28;20438;-88
2021/06/09 05:57:49;;;;;;;21.33;16.97;;;17.40;99.90;;;;;;5054179;28;20450;-87
2021/06/09 06:00:17;;;;;;;18.83;16.80;;;17.60;99.90;;;;;;5055328;28;20811;-87
2021/06/09 06:02:44;;;;;;;21.53;17.93;;;17.90;99.90;;;;;;5057688;28;20482;-85
2021/06/09 06:05:12;;;;;;;18.63;16.63;;;18.10;99.90;;;;;;5057475;28;20437;-86
2021/06/09 06:07:39;;;;;;;21.13;17.27;;;18.40;99.90;;;;;;5057844;28;20742;-89
2021/06/09 06:10:07;;;;;;;19.30;16.30;;;18.60;99.90;;;;;;5057407;28;20434;-88
2021/06/09 06:12:36;;;;;;;18.83;16.17;;;18.70;99.90;;;;;;5058223;28;20824;-86
2021/06/09 06:15:04;;;;;;;18.13;15.47;;;19.00;99.90;;;;;;5057409;28;20453;-86
2021/06/09 06:17:31;;;;;;;19.00;14.97;;;19.20;99.90;;;;;;5057187;28;20469;-86
2021/06/09 06:19:57;;;;;;;18.67;16.40;;;19.40;99.90;;;;;;5057629;28;20940;-87
2021/06/09 06:22:26;;;;;;;17.93;15.27;;;19.60;99.90;;;;;;5057348;28;20825;-87
2021/06/09 06:24:52;;;;;;;16.17;14.48;;;19.90;99.90;;;;;;5057445;28;20206;-87
2021/06/09 06:27:19;;;;;;;16.05;14.45;;;20.30;99.90;;;;;;5057167;28;20195;-90
2021/06/09 06:29:46;;;;;;;15.07;13.68;;;20.70;99.90;;;;;;5057494;28;20199;-90
2021/06/09 06:32:16;;;;;;;15.10;13.70;;;21.10;99.90;;;;;;5059834;28;20784;-87
2021/06/09 06:34:54;;;;;;;14.45;13.15;;;21.40;99.90;;;;;;5059784;28;20215;-87
2021/06/09 06:37:24;;;;;;;14.38;13.07;;;21.80;99.90;;;;;;5058479;28;20215;-87
2021/06/09 06:39:52;;;;;;;14.30;12.85;;;21.90;99.90;;;;;;5056995;28;20206;-86
2021/06/09 06:42:19;;;;;;;15.13;13.55;;;22.10;99.90;;;;;;5057352;28;20305;-88
2021/06/09 06:44:46;;;;;;;14.65;13.35;;;22.30;99.90;;;;;;5057410;28;20202;-86
2021/06/09 06:47:14;;;;;;;14.98;13.57;;;22.60;99.90;;;;;;5056330;28;20237;-86
2021/06/09 06:49:43;;;;;;;14.48;13.18;;;22.60;99.90;;;;;;5056873;28;20217;-86
2021/06/09 06:52:10;;;;;;;16.30;14.60;;;22.60;99.90;;;;;;5057385;28;20559;-86
2021/06/09 06:54:36;;;;;;;14.82;13.52;;;22.90;99.90;;;;;;5057544;28;20558;-86
2021/06/09 06:57:04;;;;;;;15.50;14.10;;;22.80;99.90;;;;;;5056750;28;20214;-86
2021/06/09 06:59:32;;;;;;;14.75;13.35;;;22.50;99.90;;;;;;5057155;28;20207;-86
2021/06/09 07:01:59;;;;;;;18.00;16.17;;;22.20;99.90;;;;;;5056432;28;20230;-86
2021/06/09 07:04:27;;;;;;;16.50;14.85;;;21.90;99.90;;;;;;5056294;28;20692;-86
2021/06/09 07:06:54;;;;;;;15.27;13.68;;;22.00;99.90;;;;;;5056953;28;20231;-87
2021/06/09 07:09:21;;;;;;;14.45;12.95;;;22.10;99.90;;;;;;5056832;28;20211;-90
2021/06/09 07:11:54;;;;;;;15.35;13.90;;;22.40;99.90;;;;;;5056205;28;20286;-88
2021/06/09 07:14:51;;;;;;;16.20;14.50;;;22.90;99.90;;;;;;5063213;28;20203;-87
2021/06/09 07:17:33;;;;;;;15.32;13.82;;;23.10;99.90;;;;;;5056529;28;20214;-88
2021/06/09 07:20:04;;;;;;;15.25;13.68;;;23.10;99.90;;;;;;5055946;28;20252;-88
2021/06/09 07:22:31;;;;;;;13.68;12.48;;;23.30;99.90;;;;;;5056186;28;20291;-88
2021/06/09 07:24:57;;;;;;;14.57;13.18;;;23.40;99.90;;;;;;5056669;28;20199;-89
2021/06/09 07:27:26;;;;;;;15.30;13.73;;;23.40;99.90;;;;;;5056138;28;20187;-89
2021/06/09 07:29:55;;;;;;;13.88;12.57;;;24.00;99.90;;;;;;5055929;28;20740;-85
2021/06/09 07:32:22;;;;;;;13.30;12.10;;;24.50;99.90;;;;;;5056512;28;20230;-85
2021/06/09 07:34:49;;;;;;;14.68;13.32;;;24.90;99.90;;;;;;5056142;28;20187;-84
2021/06/09 07:37:18;;;;;;;12.90;11.70;;;25.80;99.90;;;;;;5056119;28;20297;-87
2021/06/09 07:39:49;;;;;;;14.13;12.75;;;26.40;99.90;;;;;;5056242;28;20217;-89
2021/06/09 07:42:18;;;;;;;13.40;12.30;;;26.40;99.90;;;;;;5056327;28;20252;-89
2021/06/09 07:44:51;;;;;;;13.88;12.68;;;26.30;99.90;;;;;;5055751;28;20228;-89
2021/06/09 07:47:20;;;;;;;13.10;11.90;;;26.50;99.90;;;;;;5055885;28;20183;-89
2021/06/09 07:49:49;;;;;;;13.23;12.02;;;26.90;99.90;;;;;;5055537;28;20191;-90
2021/06/09 07:52:19;;;;;;;13.32;12.23;;;27.20;99.90;;;;;;5055665;28;20215;-90
2021/06/09 07:54:46;;;;;;;13.60;12.40;;;27.50;99.90;;;;;;5055579;28;20187;-90
2021/06/09 07:57:13;;;;;;;13.45;12.35;;;27.70;99.90;;;;;;5055743;28;20219;-90
2021/06/09 07:59:40;;;;;;;12.60;11.40;;;27.40;99.90;;;;;;5055701;28;20184;-89
2021/06/09 08:02:08;;;;;;;14.07;12.85;;;27.10;99.90;;;;;;5055451;28;20220;-90
2021/06/09 08:04:36;;;;;;;15.15;13.85;;;26.70;99.90;;;;;;5055720;28;20197;-91
2021/06/09 08:07:03;;;;;;;13.63;12.40;;;26.50;99.90;;;;;;5055339;28;20235;-92
2021/06/09 08:09:30;;;;;;;15.02;13.80;;;26.50;99.90;;;;;;5055483;28;20194;-92
2021/06/09 08:11:59;;;;;;;13.38;12.27;;;26.90;99.90;;;;;;5055078;28;20729;-93
2021/06/09 08:14:25;;;;;;;14.23;13.02;;;27.20;99.90;;;;;;5055578;28;20282;-85
2021/06/09 08:16:52;;;;;;;14.32;12.68;;;27.90;99.90;;;;;;5055190;28;20207;-86
2021/06/09 08:19:18;;;;;;;12.70;11.60;;;27.80;99.90;;;;;;5055026;28;20188;-87
2021/06/09 08:21:47;;;;;;;12.75;11.65;;;27.10;99.90;;;;;;5055164;28;20681;-85
2021/06/09 08:24:13;;;;;;;13.23;12.02;;;27.00;99.90;;;;;;5054642;28;20195;-85
2021/06/09 08:26:54;;;;;;;12.73;11.73;;;27.80;99.90;;;;;;5055190;28;20183;-88
2021/06/09 08:29:20;;;;;;;12.70;11.60;;;29.20;99.90;;;;;;5055883;28;20199;-95
2021/06/09 08:31:56;;;;;;;13.02;12.02;;;30.50;99.90;;;;;;5055767;28;20224;-93
2021/06/09 08:34:27;;;;;;;12.95;11.68;;;31.20;97.80;;;;;;5055081;28;20209;-90
2021/06/09 08:36:56;;;;;;;13.05;11.85;;;31.50;94.50;;;;;;5055371;28;20689;-90
2021/06/09 08:39:25;;;;;;;12.65;11.73;;;31.60;92.20;;;;;;5055101;28;20203;-89
2021/06/09 08:41:52;;;;;;;13.38;12.27;;;31.60;91.30;;;;;;5055683;28;20559;-90
2021/06/09 08:44:19;;;;;;;12.75;11.75;;;31.60;90.30;;;;;;5056063;28;20540;-89
2021/06/09 08:46:45;;;;;;;13.35;12.25;;;31.20;90.20;;;;;;5062458;28;20290;-92
2021/06/09 08:49:13;;;;;;;12.70;11.70;;;30.40;89.50;;;;;;5062715;28;20251;-87
2021/06/09 08:51:40;;;;;;;14.25;13.05;;;30.00;92.80;;;;;;5057456;28;20328;-90
2021/06/09 08:54:08;;;;;;;13.98;12.73;;;29.50;93.40;;;;;;5055689;28;20238;-89
2021/06/09 08:56:37;;;;;;;13.05;11.98;;;28.90;94.20;;;;;;5054867;28;20549;-90
2021/06/09 08:59:03;;;;;;;12.68;11.57;;;28.40;95.80;;;;;;5055500;28;20213;-85
2021/06/09 09:01:32;;;;;;;14.38;13.07;;;28.20;95.80;;;;;;5055683;28;20253;-87
2021/06/09 09:03:59;;;;;;;12.05;11.15;;;27.80;96.00;;;;;;5055649;28;20199;-88
2021/06/09 09:06:25;;;;;;;14.20;12.80;;;27.40;97.60;;;;;;5054445;28;20231;-84
2021/06/09 09:08:53;;;;;;;13.50;12.30;;;26.90;98.30;;;;;;5055756;28;20560;-87
2021/06/09 09:11:40;;;;;;;12.85;11.73;;;26.50;99.70;;;;;;5055619;28;20313;-88
2021/06/09 09:14:15;;;;;;;13.68;12.32;;;26.20;99.90;;;;;;5054761;28;20210;-88
2021/06/09 09:17:03;;;;;;;13.15;11.95;;;26.10;99.90;;;;;;5056107;28;20208;-87
2021/06/09 09:19:30;;;;;;;14.57;13.18;;;25.80;99.90;;;;;;5057545;28;20713;-88
2021/06/09 09:21:57;;;;;;;13.60;12.35;;;25.60;99.90;;;;;;5055110;28;20284;-88
2021/06/09 09:24:38;;;;;;;13.30;12.07;;;25.60;99.90;;;;;;5054493;28;20236;-88
2021/06/09 09:27:07;;;;;;;14.27;12.77;;;25.50;99.90;;;;;;5056839;28;20182;-88
2021/06/09 09:29:36;;;;;;;14.45;13.05;;;25.30;99.90;;;;;;5056609;28;20209;-88
2021/06/09 09:32:07;;;;;;;13.82;12.48;;;25.40;99.90;;;;;;5056454;28;20294;-88
2021/06/09 09:34:36;;;;;;;12.88;11.75;;;25.60;99.90;;;;;;5056682;28;20206;-91
2021/06/09 09:37:11;;;;;;;13.02;11.80;;;25.80;99.90;;;;;;5061528;28;20219;-91
2021/06/09 09:39:40;;;;;;;12.20;11.10;;;25.90;99.90;;;;;;5061102;28;20205;-92
2021/06/09 09:42:30;;;;;;;18.00;13.77;;;26.00;99.90;;;;;;5059641;28;20277;-92
2021/06/09 09:45:23;;;;;;;12.80;11.63;;;25.90;99.90;;;;;;5058728;28;20199;-90
2021/06/09 09:48:20;;;;;;;12.02;10.90;;;25.90;99.90;;;;;;5059233;28;20198;-91
2021/06/09 09:50:48;;;;;;;12.15;11.15;;;25.80;99.90;;;;;;5058042;28;20202;-90
2021/06/09 09:53:21;;;;;;;12.68;11.48;;;25.90;99.90;;;;;;5059047;28;20206;-90
2021/06/09 09:56:17;;;;;;;12.23;11.13;;;25.90;99.90;;;;;;5057169;28;20567;-87
2021/06/09 09:59:05;;;;;;;12.48;11.35;;;26.00;99.90;;;;;;5058616;28;20214;-88
2021/06/09 10:01:33;;;;;;;11.38;10.32;;;25.80;99.90;;;;;;5057734;28;20706;-86
2021/06/09 10:04:04;;;;;;;11.73;10.80;;;25.50;99.90;;;;;;5058367;28;20210;-87
2021/06/09 10:06:59;;;;;;;10.68;9.77;;;25.30;99.90;;;;;;5057719;28;20281;-91
2021/06/09 10:09:38;;;;;;;10.95;10.00;;;25.60;99.90;;;;;;5057963;28;20203;-89
2021/06/09 10:12:08;;;;;;;10.63;9.73;;;25.80;99.90;;;;;;5058026;28;20610;-90
2021/06/09 10:14:40;;;;;;;9.40;8.57;;;26.10;99.90;;;;;;5057951;28;20222;-86
2021/06/09 10:17:08;;;;;;;10.80;8.80;;;26.20;98.00;;;;;;5058000;28;20226;-85
2021/06/09 10:19:37;;;;;;;10.75;9.75;;;26.10;98.70;;;;;;5057172;28;20685;-87
2021/06/09 10:22:05;;;;;;;8.95;8.05;;;26.00;99.20;;;;;;5057576;28;20229;-87
2021/06/09 10:24:42;;;;;;;8.85;8.13;;;26.00;97.80;;;;;;5058380;28;20206;-87
2021/06/09 10:27:09;;;;;;;5.57;5.18;;;26.10;96.00;;;;;;5057284;28;20187;-88
2021/06/09 10:43:14;;;;;;;8.48;7.82;;;26.30;99.90;;;;;;5050020;28;20650;-88
2021/06/09 10:45:48;;;;;;;9.65;8.85;;;26.50;94.80;;;;;;5057174;28;20214;-88
2021/06/09 10:48:27;;;;;;;10.35;9.55;;;26.40;94.90;;;;;;5057007;28;20191;-88
2021/06/09 11:03:59;;;;;;;9.82;9.10;;;25.90;98.50;;;;;;4978932;28;20200;-89
2021/06/09 11:14:14;;;;;;;9.07;8.27;;;25.20;99.40;;;;;;4925618;29;20205;-90
2021/06/09 11:16:48;;;;;;;9.70;8.90;;;25.20;99.30;;;;;;5002271;28;20225;-87
2021/06/09 11:19:37;;;;;;;9.23;8.43;;;25.60;96.20;;;;;;5056735;28;20256;-86
2021/06/09 11:25:58;;;;;;;9.25;8.35;;;25.50;96.10;;;;;;5050885;28;20207;-84
2021/06/09 11:32:24;;;;;;;9.57;8.68;;;25.60;97.30;;;;;;5056137;28;20795;-86
2021/06/09 11:41:47;;;;;;;9.50;8.60;;;25.40;96.60;;;;;;5033041;28;20295;-86
2021/06/09 11:48:33;;;;;;;7.80;7.20;;;25.20;93.70;;;;;;4918238;29;20282;-85
2021/06/09 11:51:33;;;;;;;12.43;11.32;;;25.20;94.70;;;;;;4953665;28;20209;-84
2021/06/09 11:54:02;;;;;;;12.55;11.55;;;25.20;99.00;;;;;;4950635;29;20206;-82
2021/06/09 11:56:33;;;;;;;14.07;12.88;;;25.30;99.40;;;;;;4955687;29;20210;-84
2021/06/09 11:59:06;;;;;;;14.27;12.77;;;25.00;99.90;;;;;;4963077;28;20246;-84
2021/06/09 12:01:37;;;;;;;14.90;12.73;;;25.00;99.90;;;;;;5015477;28;20228;-83
2021/06/09 12:04:16;;;;;;;12.68;11.52;;;24.90;99.90;;;;;;5015540;28;20204;-83
2021/06/09 12:09:40;;;;;;;10.98;9.88;;;24.90;99.90;;;;;;5010667;28;20293;-84
2021/06/09 12:12:11;;;;;;;11.90;10.77;;;24.90;99.90;;;;;;5015459;28;20282;-83
2021/06/09 12:14:40;;;;;;;11.82;10.82;;;24.70;99.90;;;;;;5015644;28;20354;-83
2021/06/09 12:17:16;;;;;;;11.93;10.82;;;24.70;99.90;;;;;;5016194;28;20577;-84
2021/06/09 12:19:44;;;;;;;12.77;11.55;;;24.70;99.90;;;;;;5015918;28;20247;-86
2021/06/09 12:22:12;;;;;;;11.90;10.80;;;24.50;99.90;;;;;;5016247;28;20234;-85
2021/06/09 12:24:40;;;;;;;11.55;10.55;;;24.50;99.90;;;;;;5015538;28;20271;-85
2021/06/09 12:27:10;;;;;;;13.35;12.05;;;24.40;99.90;;;;;;5015437;28;20192;-84
2021/06/09 12:29:39;;;;;;;11.90;10.90;;;24.20;99.90;;;;;;5014911;28;20200;-84
2021/06/09 12:32:20;;;;;;;11.98;10.95;;;23.90;99.90;;;;;;5016414;28;20315;-87
2021/06/09 12:34:55;;;;;;;11.33;10.23;;;23.70;99.90;;;;;;5015712;28;20204;-87
2021/06/09 12:37:24;;;;;;;10.30;9.40;;;23.50;99.90;;;;;;5015533;28;20211;-88
2021/06/09 12:39:55;;;;;;;10.07;9.20;;;23.40;99.90;;;;;;5015386;28;20644;-87
2021/06/09 12:42:26;;;;;;;9.30;8.60;;;23.30;99.90;;;;;;5014999;28;20220;-87
2021/06/09 12:44:55;;;;;;;10.77;9.80;;;23.30;99.90;;;;;;4998286;28;20451;-88
2021/06/09 12:47:26;;;;;;;10.57;9.67;;;23.20;99.90;;;;;;4995675;28;20182;-88
2021/06/09 12:50:09;;;;;;;11.00;10.10;;;23.20;99.90;;;;;;4995775;28;20443;-87
2021/06/09 12:52:35;;;;;;;10.53;9.53;;;23.20;99.90;;;;;;5014591;28;20497;-88
2021/06/09 12:55:08;;;;;;;10.43;9.63;;;23.40;99.90;;;;;;5034788;28;20270;-88
2021/06/09 12:57:36;;;;;;;9.73;8.93;;;23.60;99.90;;;;;;5034770;28;20214;-88
2021/06/09 13:00:23;;;;;;;9.30;8.50;;;23.60;99.90;;;;;;5034767;28;20188;-87
2021/06/09 13:02:49;;;;;;;7.77;7.27;;;23.60;99.90;;;;;;5034576;28;20292;-88
2021/06/09 13:05:17;;;;;;;7.87;7.27;;;23.60;99.90;;;;;;5034682;28;20188;-87
2021/06/09 13:07:44;;;;;;;9.20;8.50;;;23.50;99.90;;;;;;5034485;28;20190;-88
2021/06/09 13:10:12;;;;;;;10.53;9.53;;;23.50;99.90;;;;;;5034012;28;20635;-89
2021/06/09 13:12:42;;;;;;;10.50;9.47;;;23.50;99.90;;;;;;5034602;28;20282;-88
2021/06/09 13:15:11;;;;;;;10.53;9.57;;;23.40;99.90;;;;;;5034375;28;20184;-88
2021/06/09 13:17:48;;;;;;;9.97;9.20;;;23.30;99.90;;;;;;5035495;28;20472;-88
2021/06/09 13:20:15;;;;;;;10.00;9.10;;;23.30;99.90;;;;;;5038370;28;20553;-88
2021/06/09 13:22:43;;;;;;;9.83;9.03;;;23.20;99.90;;;;;;5035345;28;20231;-88
2021/06/09 13:25:10;;;;;;;10.80;9.87;;;23.00;99.90;;;;;;5034816;28;20898;-88
2021/06/09 13:27:37;;;;;;;11.73;10.63;;;22.70;99.90;;;;;;5034158;28;20906;-87
2021/06/09 13:30:08;;;;;;;10.77;9.83;;;22.50;99.90;;;;;;5034479;28;20431;-87
2021/06/09 13:32:38;;;;;;;10.33;9.30;;;22.30;99.90;;;;;;5034085;28;20990;-87
2021/06/09 13:35:08;;;;;;;10.87;9.90;;;22.20;99.90;;;;;;5034583;28;20465;-87
2021/06/09 13:37:36;;;;;;;11.20;10.20;;;22.10;99.90;;;;;;5034375;28;20466;-87